createdAt,value
2023-02-11T00:00:55.456Z,-1.60
2023-02-11T00:03:53.330Z,-1.60
2023-02-11T00:06:50.155Z,-1.60
2023-02-11T00:09:47.000Z,-1.70
2023-02-11T00:12:47.085Z,-1.60
2023-02-11T00:15:43.922Z,-1.70
2023-02-11T00:18:40.765Z,-1.70
2023-02-11T00:21:37.618Z,-1.70
2023-02-11T00:24:35.940Z,-1.70
2023-02-11T00:27:33.369Z,-1.80
2023-02-11T00:30:30.246Z,-1.80
2023-02-11T00:33:27.134Z,-1.70
2023-02-11T00:36:27.687Z,-1.70
2023-02-11T00:39:24.972Z,-1.60
2023-02-11T00:42:21.780Z,-1.50
2023-02-11T00:45:20.924Z,-1.50
2023-02-11T00:48:17.870Z,-1.50
2023-02-11T00:51:15.088Z,-1.50
2023-02-11T00:54:12.023Z,-1.50
2023-02-11T00:57:08.888Z,-1.50
2023-02-11T01:00:07.464Z,-1.50
2023-02-11T01:03:04.370Z,-1.50
2023-02-11T01:06:01.311Z,-1.50
2023-02-11T01:08:58.189Z,-1.40
2023-02-11T01:11:55.085Z,-1.40
2023-02-11T01:14:52.162Z,-1.40
2023-02-11T01:17:49.079Z,-1.30
2023-02-11T01:20:45.929Z,-1.30
2023-02-11T01:23:42.823Z,-1.20
2023-02-11T01:26:39.671Z,-1.30
2023-02-11T01:29:36.647Z,-1.30
2023-02-11T01:32:33.939Z,-1.30
2023-02-11T01:35:30.784Z,-1.30
2023-02-11T01:38:27.647Z,-1.20
2023-02-11T01:41:24.546Z,-1.20
2023-02-11T01:44:35.506Z,-1.10
2023-02-11T01:47:32.338Z,-1.00
2023-02-11T01:50:29.364Z,-1.10
2023-02-11T01:53:48.430Z,-1.00
2023-02-11T01:57:10.305Z,-1.00
2023-02-11T02:00:17.051Z,-1.00
2023-02-11T02:03:20.217Z,-0.90
2023-02-11T02:06:25.898Z,-1.00
2023-02-11T02:09:28.385Z,-0.90
2023-02-11T02:12:25.230Z,-0.90
2023-02-11T02:15:35.096Z,-0.90
2023-02-11T02:19:03.184Z,-0.90
2023-02-11T02:23:09.585Z,-0.90
2023-02-11T02:26:37.306Z,-0.90
2023-02-11T02:30:20.036Z,-0.80
2023-02-11T02:33:37.801Z,-0.80
2023-02-11T02:36:50.412Z,-0.80
2023-02-11T02:39:50.344Z,-0.80
2023-02-11T02:42:49.528Z,-0.80
2023-02-11T02:45:46.360Z,-0.80
2023-02-11T02:48:44.379Z,-0.80
2023-02-11T02:52:15.285Z,-0.70
2023-02-11T02:55:38.606Z,-0.70
2023-02-11T02:59:20.810Z,-0.70
2023-02-11T03:02:40.281Z,-0.70
2023-02-11T03:05:53.500Z,-0.70
2023-02-11T03:09:33.602Z,-0.60
2023-02-11T03:12:33.190Z,-0.70
2023-02-11T03:15:37.212Z,-0.60
2023-02-11T03:18:38.077Z,-0.60
2023-02-11T03:21:40.114Z,-0.60
2023-02-11T03:24:40.052Z,-0.60
2023-02-11T03:27:52.631Z,-0.60
2023-02-11T03:31:02.993Z,-0.60
2023-02-11T03:34:16.320Z,-0.50
2023-02-11T03:37:29.800Z,-0.50
2023-02-11T03:40:32.576Z,-0.50
2023-02-11T03:43:37.034Z,-0.50
2023-02-11T03:46:41.955Z,-0.50
2023-02-11T03:49:41.683Z,-0.50
2023-02-11T03:52:39.277Z,-0.50
2023-02-11T03:55:39.963Z,-0.50
2023-02-11T03:58:36.923Z,-0.50
2023-02-11T04:01:33.869Z,-0.50
2023-02-11T04:04:30.767Z,-0.50
2023-02-11T04:07:28.268Z,-0.50
2023-02-11T04:10:25.510Z,-0.40
2023-02-11T04:13:22.515Z,-0.50
2023-02-11T04:16:19.481Z,-0.50
2023-02-11T04:19:16.326Z,-0.50
2023-02-11T04:22:13.210Z,-0.50
2023-02-11T04:25:10.983Z,-0.40
2023-02-11T04:28:07.829Z,-0.50
2023-02-11T04:31:04.906Z,-0.40
2023-02-11T04:34:01.851Z,-0.50
2023-02-11T04:36:58.696Z,-0.50
2023-02-11T04:39:55.564Z,-0.40
2023-02-11T04:42:52.608Z,-0.40
2023-02-11T04:45:49.830Z,-0.40
2023-02-11T04:48:46.921Z,-0.40
2023-02-11T04:51:47.590Z,-0.30
2023-02-11T04:54:45.787Z,-0.30
2023-02-11T04:57:42.630Z,-0.30
2023-02-11T05:00:39.458Z,-0.30
2023-02-11T05:03:37.195Z,-0.40
2023-02-11T05:06:34.081Z,-0.30
2023-02-11T05:09:30.928Z,-0.30
2023-02-11T05:12:27.776Z,-0.30
2023-02-11T05:15:24.669Z,-0.30
2023-02-11T05:18:21.862Z,-0.30
2023-02-11T05:21:19.820Z,-0.30
2023-02-11T05:24:16.634Z,-0.30
2023-02-11T05:27:13.538Z,-0.30
2023-02-11T05:30:11.673Z,-0.30
2023-02-11T05:33:08.533Z,-0.20
2023-02-11T05:36:10.358Z,-0.30
2023-02-11T05:39:07.172Z,-0.30
2023-02-11T05:42:04.898Z,-0.30
2023-02-11T05:45:02.093Z,-0.30
2023-02-11T05:47:58.937Z,-0.20
2023-02-11T05:50:55.770Z,-0.30
2023-02-11T05:53:53.679Z,-0.30
2023-02-11T05:56:50.607Z,-0.30
2023-02-11T05:59:48.094Z,-0.30
2023-02-11T06:02:45.108Z,-0.30
2023-02-11T06:05:44.320Z,-0.30
2023-02-11T06:08:41.662Z,-0.30
2023-02-11T06:11:38.798Z,-0.30
2023-02-11T06:14:35.620Z,-0.30
2023-02-11T06:17:33.709Z,-0.30
2023-02-11T06:20:30.557Z,-0.20
2023-02-11T06:23:30.001Z,-0.30
2023-02-11T06:26:27.202Z,-0.30
2023-02-11T06:29:24.018Z,-0.20
2023-02-11T06:32:42.166Z,-0.20
2023-02-11T06:35:40.900Z,-0.20
2023-02-11T06:38:37.943Z,-0.20
2023-02-11T06:41:34.817Z,-0.20
2023-02-11T06:44:32.074Z,-0.20
2023-02-11T06:47:28.902Z,-0.20
2023-02-11T06:50:25.736Z,-0.20
2023-02-11T06:53:22.608Z,-0.20
2023-02-11T06:56:22.675Z,-0.10
2023-02-11T06:59:20.697Z,-0.10
2023-02-11T07:02:20.413Z,0.00
2023-02-11T07:05:20.178Z,0.00
2023-02-11T07:08:17.026Z,0.00
2023-02-11T07:11:24.183Z,0.00
2023-02-11T07:14:21.086Z,0.00
2023-02-11T07:17:17.981Z,0.10
2023-02-11T07:20:15.012Z,0.10
2023-02-11T07:23:11.843Z,0.10
2023-02-11T07:26:12.242Z,0.10
2023-02-11T07:29:09.082Z,0.10
2023-02-11T07:32:06.807Z,0.20
2023-02-11T07:35:04.162Z,0.20
2023-02-11T07:38:01.042Z,0.20
2023-02-11T07:41:02.258Z,0.20
2023-02-11T07:43:59.232Z,0.20
2023-02-11T07:46:56.738Z,0.30
2023-02-11T07:49:56.479Z,0.30
2023-02-11T07:52:53.834Z,0.30
2023-02-11T07:55:51.812Z,0.30
2023-02-11T07:58:49.297Z,0.40
2023-02-11T08:01:46.329Z,0.40
2023-02-11T08:04:45.454Z,0.40
2023-02-11T08:07:42.429Z,0.40
2023-02-11T08:10:39.314Z,0.40
2023-02-11T08:13:36.979Z,0.40
2023-02-11T08:16:36.471Z,0.40
2023-02-11T08:19:35.233Z,0.40
2023-02-11T08:22:34.018Z,0.50
2023-02-11T08:25:30.864Z,0.50
2023-02-11T08:28:27.969Z,0.50
2023-02-11T08:31:34.788Z,0.50
2023-02-11T08:34:31.693Z,0.50
2023-02-11T08:37:28.906Z,0.60
2023-02-11T08:40:26.672Z,0.60
2023-02-11T08:43:23.614Z,0.60
2023-02-11T08:46:21.246Z,0.70
2023-02-11T08:49:18.384Z,0.70
2023-02-11T08:52:15.236Z,0.80
2023-02-11T08:55:12.063Z,0.80
2023-02-11T08:58:09.293Z,0.80
2023-02-11T09:01:31.115Z,0.90
2023-02-11T09:04:28.002Z,0.90
2023-02-11T09:07:24.836Z,0.90
2023-02-11T09:10:21.663Z,0.90
2023-02-11T09:13:18.661Z,1.00
2023-02-11T09:16:22.500Z,1.00
2023-02-11T09:19:19.904Z,0.90
2023-02-11T09:22:16.732Z,0.90
2023-02-11T09:25:13.619Z,0.90
2023-02-11T09:28:12.780Z,0.90
2023-02-11T09:31:15.138Z,0.90
2023-02-11T09:34:13.090Z,0.80
2023-02-11T09:37:11.092Z,0.90
2023-02-11T09:40:09.031Z,0.90
2023-02-11T09:43:22.077Z,0.80
2023-02-11T09:46:20.323Z,0.90
2023-02-11T09:49:26.371Z,0.80
2023-02-11T09:52:50.074Z,0.90
2023-02-11T09:55:55.607Z,0.90
2023-02-11T09:58:52.458Z,1.00
2023-02-11T10:01:58.817Z,1.10
2023-02-11T10:05:31.285Z,1.10
2023-02-11T10:09:12.747Z,1.20
2023-02-11T10:12:18.230Z,1.20
2023-02-11T10:15:27.424Z,1.20
2023-02-11T10:18:56.835Z,1.20
2023-02-11T10:22:03.515Z,1.20
2023-02-11T10:25:06.552Z,1.20
2023-02-11T10:28:20.941Z,1.20
2023-02-11T10:31:41.120Z,1.30
2023-02-11T10:34:41.823Z,1.20
2023-02-11T10:37:38.561Z,1.20
2023-02-11T10:40:35.439Z,1.20
2023-02-11T10:43:34.571Z,1.10
2023-02-11T10:46:36.938Z,1.30
2023-02-11T10:49:39.931Z,1.30
2023-02-11T10:52:36.775Z,1.30
2023-02-11T10:55:33.688Z,1.30
2023-02-11T10:58:56.068Z,1.20
2023-02-11T11:02:04.713Z,1.20
2023-02-11T11:05:17.200Z,1.30
2023-02-11T11:08:15.833Z,1.40
2023-02-11T11:11:18.801Z,1.40
2023-02-11T11:14:20.711Z,1.40
2023-02-11T11:17:19.617Z,1.40
2023-02-11T11:20:27.529Z,1.50
2023-02-11T11:23:25.374Z,1.50
2023-02-11T11:26:23.687Z,1.50
2023-02-11T11:29:48.214Z,1.40
2023-02-11T11:32:45.715Z,1.40
2023-02-11T11:35:42.762Z,1.50
2023-02-11T11:38:58.257Z,1.50
2023-02-11T11:41:59.622Z,1.40
2023-02-11T11:45:30.278Z,1.40
2023-02-11T11:48:42.196Z,1.40
2023-02-11T11:51:45.573Z,1.40
2023-02-11T11:54:53.574Z,1.50
2023-02-11T11:57:51.118Z,1.50
2023-02-11T12:01:26.221Z,1.60
2023-02-11T12:04:50.775Z,1.60
2023-02-11T12:07:50.900Z,1.60
2023-02-11T12:11:13.971Z,1.70
2023-02-11T12:14:35.591Z,1.70
2023-02-11T12:17:52.152Z,1.80
2023-02-11T12:21:22.430Z,1.90
2023-02-11T12:25:02.933Z,1.90
2023-02-11T12:28:58.631Z,1.90
2023-02-11T12:32:36.401Z,1.90
2023-02-11T12:36:15.102Z,1.80
2023-02-11T12:39:50.382Z,1.90
2023-02-11T12:43:21.645Z,1.90
2023-02-11T12:46:48.925Z,1.90
2023-02-11T12:50:22.834Z,1.90
2023-02-11T12:53:56.589Z,1.90
2023-02-11T12:56:55.806Z,1.90
2023-02-11T13:00:22.287Z,1.90
2023-02-11T13:03:28.644Z,1.80
2023-02-11T13:06:52.334Z,1.90
2023-02-11T13:10:02.153Z,1.80
2023-02-11T13:13:19.031Z,1.90
2023-02-11T13:16:36.319Z,1.90
2023-02-11T13:19:42.451Z,2.00
2023-02-11T13:22:48.938Z,2.10
2023-02-11T13:26:04.278Z,2.00
2023-02-11T13:29:36.290Z,2.00
2023-02-11T13:33:31.798Z,2.00
2023-02-11T13:36:32.789Z,2.00
2023-02-11T13:39:29.993Z,2.00
2023-02-11T13:42:28.483Z,2.00
2023-02-11T13:45:48.905Z,2.10
2023-02-11T13:48:52.991Z,2.10
2023-02-11T13:51:51.291Z,2.00
2023-02-11T13:54:51.700Z,2.10
2023-02-11T13:58:08.374Z,2.10
2023-02-11T14:01:06.099Z,2.40
2023-02-11T14:04:42.468Z,2.30
2023-02-11T14:08:12.240Z,2.30
2023-02-11T14:11:32.646Z,2.30
2023-02-11T14:14:33.848Z,2.10
2023-02-11T14:17:34.134Z,2.20
2023-02-11T14:20:39.565Z,2.30
2023-02-11T14:23:37.458Z,2.20
2023-02-11T14:26:54.736Z,2.10
2023-02-11T14:30:09.801Z,2.20
2023-02-11T14:33:45.841Z,2.20
2023-02-11T14:36:58.804Z,2.30
2023-02-11T14:40:30.830Z,2.10
2023-02-11T14:43:46.858Z,2.10
2023-02-11T14:46:50.033Z,2.10
2023-02-11T14:49:48.313Z,2.10
2023-02-11T14:52:45.627Z,2.00
2023-02-11T14:55:45.658Z,2.00
2023-02-11T14:58:48.286Z,2.00
2023-02-11T15:01:51.795Z,2.00
2023-02-11T15:04:48.738Z,2.00
2023-02-11T15:08:07.383Z,2.10
2023-02-11T15:11:13.138Z,2.00
2023-02-11T15:14:32.558Z,1.90
2023-02-11T15:17:32.072Z,1.90
2023-02-11T15:20:33.202Z,2.00
2023-02-11T15:23:31.267Z,2.00
2023-02-11T15:26:29.734Z,1.90
2023-02-11T15:29:40.763Z,2.00
2023-02-11T15:32:43.435Z,2.00
2023-02-11T15:35:41.055Z,1.90
2023-02-11T15:38:37.963Z,1.90
2023-02-11T15:41:37.746Z,1.90
2023-02-11T15:44:34.556Z,1.80
2023-02-11T15:47:31.408Z,1.80
2023-02-11T15:50:33.039Z,1.80
2023-02-11T15:53:42.378Z,1.70
2023-02-11T15:56:43.347Z,1.70
2023-02-11T15:59:46.484Z,1.90
2023-02-11T16:02:46.614Z,1.90
2023-02-11T16:05:43.403Z,1.90
2023-02-11T16:08:42.959Z,1.80
2023-02-11T16:11:48.652Z,1.80
2023-02-11T16:14:45.539Z,1.80
2023-02-11T16:17:44.598Z,1.80
2023-02-11T16:20:46.472Z,1.80
2023-02-11T16:23:50.043Z,1.80
2023-02-11T16:26:54.333Z,1.80
2023-02-11T16:29:52.271Z,1.70
2023-02-11T16:32:49.076Z,1.70
2023-02-11T16:35:47.618Z,1.80
2023-02-11T16:38:44.481Z,1.70
2023-02-11T16:41:41.397Z,1.60
2023-02-11T16:44:38.459Z,1.60
2023-02-11T16:47:36.162Z,1.60
2023-02-11T16:50:32.980Z,1.60
2023-02-11T16:53:29.919Z,1.60
2023-02-11T16:56:26.827Z,1.60
2023-02-11T16:59:23.985Z,1.60
2023-02-11T17:02:30.486Z,1.70
2023-02-11T17:05:27.468Z,1.60
2023-02-11T17:08:24.424Z,1.60
2023-02-11T17:11:21.229Z,1.60
2023-02-11T17:14:19.881Z,1.60
2023-02-11T17:17:17.517Z,1.60
2023-02-11T17:20:15.329Z,1.50
2023-02-11T17:23:12.150Z,1.50
2023-02-11T17:26:09.758Z,1.50
2023-02-11T17:29:09.064Z,1.50
2023-02-11T17:32:06.182Z,1.50
2023-02-11T17:35:05.826Z,1.50
2023-02-11T17:38:02.825Z,1.50
2023-02-11T17:41:02.129Z,1.60
2023-02-11T17:44:00.908Z,1.50
2023-02-11T17:46:57.826Z,1.50
2023-02-11T17:49:54.700Z,1.40
2023-02-11T17:52:51.662Z,1.40
2023-02-11T17:55:48.757Z,1.40
2023-02-11T17:58:46.027Z,1.50
2023-02-11T18:01:43.791Z,1.50
2023-02-11T18:04:40.774Z,1.50
2023-02-11T18:07:37.712Z,1.50
2023-02-11T18:10:34.740Z,1.50
2023-02-11T18:13:31.573Z,1.50
2023-02-11T18:16:29.985Z,1.50
2023-02-11T18:19:30.470Z,1.60
2023-02-11T18:22:27.385Z,1.50
2023-02-11T18:25:24.488Z,1.50
2023-02-11T18:28:21.480Z,1.50
2023-02-11T18:31:19.136Z,1.40
2023-02-11T18:34:16.954Z,1.40
2023-02-11T18:37:14.306Z,1.40
2023-02-11T18:40:12.786Z,1.50
2023-02-11T18:43:09.631Z,1.50
2023-02-11T18:46:16.055Z,1.40
2023-02-11T18:49:13.234Z,1.40
2023-02-11T18:52:10.056Z,1.40
2023-02-11T18:55:07.728Z,1.50
2023-02-11T18:58:04.560Z,1.50
2023-02-11T19:01:01.445Z,1.40
2023-02-11T19:04:02.846Z,1.40
2023-02-11T19:07:03.127Z,1.40
2023-02-11T19:09:59.978Z,1.50
2023-02-11T19:12:58.889Z,1.60
2023-02-11T19:15:55.774Z,1.50
2023-02-11T19:18:52.826Z,1.50
2023-02-11T19:21:50.183Z,1.60
2023-02-11T19:24:47.051Z,1.50
2023-02-11T19:27:43.935Z,1.50
2023-02-11T19:30:41.303Z,1.40
2023-02-11T19:33:38.156Z,1.40
2023-02-11T19:36:35.157Z,1.40
2023-02-11T19:39:32.211Z,1.40
2023-02-11T19:42:29.026Z,1.40
2023-02-11T19:45:26.938Z,1.40
2023-02-11T19:48:25.362Z,1.40
2023-02-11T19:51:22.652Z,1.50
2023-02-11T19:54:20.342Z,1.40
2023-02-11T19:57:17.402Z,1.50
2023-02-11T20:00:14.894Z,1.40
2023-02-11T20:03:11.827Z,1.40
2023-02-11T20:06:14.402Z,1.30
2023-02-11T20:09:14.455Z,1.30
2023-02-11T20:12:12.060Z,1.40
2023-02-11T20:15:13.021Z,1.50
2023-02-11T20:18:09.933Z,1.50
2023-02-11T20:21:25.585Z,1.40
2023-02-11T20:24:23.737Z,1.40
2023-02-11T20:27:20.611Z,1.40
2023-02-11T20:30:17.510Z,1.50
2023-02-11T20:33:14.746Z,1.50
2023-02-11T20:36:17.224Z,1.50
2023-02-11T20:39:17.178Z,1.50
2023-02-11T20:42:14.998Z,1.40
2023-02-11T20:45:11.894Z,1.30
2023-02-11T20:48:08.735Z,1.30
2023-02-11T20:51:16.505Z,1.40
2023-02-11T20:54:17.141Z,1.40
2023-02-11T20:57:13.898Z,1.40
2023-02-11T21:00:13.124Z,1.40
2023-02-11T21:03:10.300Z,1.50
2023-02-11T21:06:08.112Z,1.50
2023-02-11T21:09:07.406Z,1.50
2023-02-11T21:12:05.368Z,1.40
2023-02-11T21:15:05.434Z,1.40
2023-02-11T21:18:02.242Z,1.40
2023-02-11T21:21:00.021Z,1.40
2023-02-11T21:23:58.500Z,1.40
2023-02-11T21:26:55.341Z,1.40
2023-02-11T21:29:54.507Z,1.40
2023-02-11T21:32:51.629Z,1.40
2023-02-11T21:35:49.080Z,1.40
2023-02-11T21:38:46.127Z,1.40
2023-02-11T21:41:43.035Z,1.40
2023-02-11T21:44:39.849Z,1.30
2023-02-11T21:47:36.651Z,1.30
2023-02-11T21:50:33.482Z,1.30
2023-02-11T21:53:30.286Z,1.30
2023-02-11T21:56:29.704Z,1.40
2023-02-11T21:59:26.557Z,1.40
2023-02-11T22:02:23.450Z,1.40
2023-02-11T22:05:20.877Z,1.40
2023-02-11T22:08:20.188Z,1.40
2023-02-11T22:11:17.378Z,1.40
2023-02-11T22:14:14.269Z,1.40
2023-02-11T22:17:11.173Z,1.40
2023-02-11T22:20:10.081Z,1.30
2023-02-11T22:23:06.887Z,1.30
2023-02-11T22:26:11.528Z,1.40
2023-02-11T22:29:08.358Z,1.30
2023-02-11T22:32:05.597Z,1.40
2023-02-11T22:35:02.595Z,1.40
2023-02-11T22:37:59.393Z,1.50
2023-02-11T22:40:56.429Z,1.50
2023-02-11T22:43:53.309Z,1.40
2023-02-11T22:46:51.876Z,1.40
2023-02-11T22:49:48.790Z,1.40
2023-02-11T22:52:45.588Z,1.40
2023-02-11T22:55:42.402Z,1.40
2023-02-11T22:58:39.348Z,1.40
2023-02-11T23:01:37.193Z,1.40
2023-02-11T23:04:34.144Z,1.40
2023-02-11T23:07:30.976Z,1.30
2023-02-11T23:10:27.851Z,1.30
2023-02-11T23:13:24.658Z,1.30
2023-02-11T23:16:26.226Z,1.30
2023-02-11T23:19:23.076Z,1.30
2023-02-11T23:22:19.879Z,1.40
2023-02-11T23:25:16.826Z,1.40
2023-02-11T23:28:13.669Z,1.50
2023-02-11T23:31:27.307Z,1.40
2023-02-11T23:34:25.504Z,1.40
2023-02-11T23:37:22.408Z,1.40
2023-02-11T23:40:21.227Z,1.40
2023-02-11T23:43:18.093Z,1.30
2023-02-11T23:46:14.940Z,1.40
2023-02-11T23:49:11.775Z,1.30
2023-02-11T23:52:08.600Z,1.40
2023-02-11T23:55:06.045Z,1.40
2023-02-11T23:58:02.849Z,1.40
